East Franklin, North Carolina
Current Conditions -  °F | °C
As of 12:35 AM on Thursday 23 Oct 2014 (Local Time) from KRHP Reporting Station
Clear Clear  
Wind Chill: 39°   Ceiling: Unl
Heat Index: 39°   Visibility: 10mi
Dew Point: 38°   Wind: 0mph
Humidity: 95%   Direction: NA
Pressure: 30.16"   Gusts: NA
Location:  35.1737°N, 83.4215°W
Report Text: KRHP 230435Z AUTO 00000KT 10SM CLR 04/03 A3016 RMK AO2 T00390032
Loading
Personal Weather Stations






























Interactive Weather Map
Tropical Storm Tracking
New forecast layout! Learn more

10-Day Weather Forecast

Advertisements
Track Severe Weather on mobile